Latest Weather Observations for Bourke

IDN60801

Issued at 9:35 pm EST Monday 21 April 2014 (issued every 30 minutes, with the page automatically refreshed every 10 minutes)

About weather observations | Map of weather stations | Latest weather observations for NSW | Other Formats
Station Details ID: 048245 Name: BOURKE AIRPORT AWS Lat: -30.04 Lon: 145.95 Height: 107.3 m
Data from the previous 72 hours. | See also: Recent months at Bourke
Date/Time
EST
Temp
°C
App
Temp
°C
Dew
Point
Rel
Hum
%
Delta-T
°C
Wind Press
QNH
hPa
Press
MSL
hPa
Rain
since 9 am
mm
Dir
 
Spd
km/h
Gust
km/h
Spd
kts
Gust
kts
21/09:30pm 13.0 10.1 4.7 57 3.8 SE 9 9 5 5 1019.1 - 0.0
21/09:00pm 14.9 11.7 4.9 51 4.7 SSE 11 13 6 7 1018.9 1018.7 0.0
21/08:30pm 14.2 11.7 5.0 54 4.3 SSE 7 9 4 5 1019.0 - 0.0
21/08:00pm 13.7 11.3 4.3 53 4.3 E 6 7 3 4 1018.9 - 0.0
21/07:30pm 14.7 13.3 3.8 48 5.0 CALM 0 0 0 0 1018.8 - 0.0
21/07:00pm 16.0 14.5 3.1 42 5.9 CALM 0 0 0 0 1018.7 - 0.0
21/06:30pm 17.5 16.3 4.5 42 6.2 CALM 0 0 0 0 1018.5 - 0.0
21/06:00pm 19.8 17.6 3.1 33 7.9 E 4 6 2 3 1018.3 1018.1 0.0
21/05:30pm 22.6 20.2 2.1 26 9.7 ESE 4 7 2 4 1018.2 - 0.0
21/05:00pm 24.1 21.3 2.3 24 10.5 E 6 9 3 5 1018.1 - 0.0
21/04:30pm 24.0 20.9 1.6 23 10.6 E 7 15 4 8 1018.1 - 0.0
21/04:00pm 24.3 21.5 1.9 23 10.7 SSE 6 11 3 6 1018.1 - 0.0
21/03:30pm 24.2 20.8 1.8 23 10.6 E 9 17 5 9 1018.1 - 0.0
21/03:00pm 24.1 20.8 2.3 24 10.4 ENE 9 15 5 8 1017.8 1017.6 0.0
21/02:30pm 24.2 21.0 2.9 25 10.3 SSE 9 19 5 10 1018.2 - 0.0
21/02:00pm 24.3 20.3 3.0 25 10.4 ESE 13 19 7 10 1018.5 - 0.0
21/01:30pm 23.5 19.9 2.9 26 9.9 ENE 11 20 6 11 1018.8 - 0.0
21/01:00pm 23.2 19.2 2.7 26 9.8 E 13 20 7 11 1019.2 - 0.0
21/12:30pm 22.8 19.3 3.4 28 9.4 E 11 19 6 10 1020.1 - 0.0
21/12:00pm 22.6 19.0 3.2 28 9.3 E 11 19 6 10 1020.6 1020.3 0.0
21/11:30am 21.8 18.2 3.0 29 9.0 NE 11 17 6 9 1021.1 - 0.0
21/11:00am 21.9 18.0 3.6 30 8.8 E 13 19 7 10 1021.5 - 0.0
21/10:30am 20.7 16.4 3.4 32 8.3 E 15 20 8 11 1021.8 - 0.0
21/10:00am 19.8 16.0 3.9 35 7.6 E 13 19 7 10 1022.0 - 0.0
21/09:30am 18.2 14.0 3.7 38 6.8 ENE 15 19 8 10 1022.3 - 0.0
21/09:00am 17.0 13.4 5.0 45 5.7 ENE 13 17 7 9 1022.2 1021.9 0.0
21/08:30am 15.1 11.0 4.2 48 5.1 E 15 19 8 10 1022.2 - 0.0
21/08:00am 13.0 10.6 5.2 59 3.6 NE 7 11 4 6 1021.9 - 0.0
21/07:30am 9.6 7.7 5.0 73 2.1 ENE 4 6 2 3 1021.6 - 0.0
21/07:00am 6.2 3.4 3.0 80 1.3 NE 7 9 4 5 1021.2 - 0.0
21/06:30am 5.9 3.5 2.2 77 1.5 E 4 6 2 3 1020.9 - 0.0
21/06:00am 6.8 4.0 2.9 76 1.6 SE 7 7 4 4 1020.4 1020.1 0.0
21/05:30am 6.9 3.9 2.2 72 1.9 SE 7 7 4 4 1020.1 - 0.0
21/05:00am 8.2 5.4 3.1 70 2.2 SSE 7 7 4 4 1019.5 - 0.0
21/04:30am 8.3 5.4 2.8 68 2.3 SSE 7 9 4 5 1019.2 - 0.0
21/04:00am 8.3 5.5 3.2 70 2.2 SE 7 9 4 5 1019.1 - 0.0
21/03:30am 8.1 4.9 3.0 70 2.2 ESE 9 11 5 6 1019.1 - 0.0
21/03:00am 9.0 6.3 3.6 69 2.3 S 7 9 4 5 1019.1 1018.9 0.0
21/02:30am 7.9 5.3 3.0 71 2.1 SSE 6 7 3 4 1019.0 - 0.0
21/02:00am 8.8 6.2 3.2 68 2.4 SSE 6 6 3 3 1019.0 - 0.0
21/01:30am 9.3 6.5 3.1 65 2.7 SSE 7 9 4 5 1019.1 - 0.0
21/01:00am 10.2 7.0 3.0 61 3.1 SSE 9 9 5 5 1019.2 - 0.0
21/12:30am 11.4 7.9 3.4 58 3.5 SSE 11 11 6 6 1019.3 - 0.0
21/12:00am 12.3 8.8 3.3 54 4.0 SSE 11 11 6 6 1019.4 1019.2 0.0
 
Date/Time
EST
Temp
°C
App
Temp
°C
Dew
Point
Rel
Hum
%
Delta-T
°C
Wind Press
QNH
hPa
Press
MSL
hPa
Rain
since 9 am
mm
Dir
 
Spd
km/h
Gust
km/h
Spd
kts
Gust
kts
20/11:30pm 12.5 9.3 3.2 53 4.1 SSE 9 11 5 6 1019.4 - 0.0
20/11:00pm 12.1 8.9 3.1 54 4.0 SSE 9 9 5 5 1019.6 - 0.0
20/10:30pm 11.5 8.4 3.5 58 3.6 S 9 11 5 6 1019.8 - 0.0
20/10:00pm 12.4 9.5 4.4 58 3.7 S 9 11 5 6 1019.6 - 0.0
20/09:30pm 13.1 9.8 4.5 56 4.0 S 11 19 6 10 1019.5 - 0.0
20/09:00pm 12.3 10.9 3.5 55 3.9 CALM 0 0 0 0 1019.1 1018.9 0.0
20/08:30pm 12.8 11.6 4.5 57 3.8 CALM 0 0 0 0 1018.8 - 0.0
20/08:00pm 12.6 11.2 3.8 55 4.0 CALM 0 0 0 0 1018.7 - 0.0
20/07:30pm 13.8 12.5 4.1 52 4.5 CALM 0 0 0 0 1018.5 - 0.0
20/07:00pm 14.5 13.0 3.0 46 5.2 CALM 0 0 0 0 1018.0 - 0.0
20/06:30pm 17.4 14.6 1.8 35 7.0 WSW 6 7 3 4 1017.8 - 0.0
20/06:00pm 19.9 16.9 1.8 30 8.3 WSW 7 7 4 4 1017.7 1017.5 0.0
20/05:30pm 21.4 18.0 1.6 27 9.2 SW 9 13 5 7 1017.4 - 0.0
20/05:00pm 22.7 19.3 1.7 25 9.9 SW 9 13 5 7 1017.2 - 0.0
20/04:30pm 23.1 19.3 2.0 25 10.0 W 11 17 6 9 1017.1 - 0.0
20/04:00pm 22.9 19.6 2.4 26 9.8 S 9 15 5 8 1017.0 - 0.0
20/03:30pm 22.8 19.5 2.3 26 9.7 S 9 17 5 9 1017.1 - 0.0
20/03:00pm 22.5 18.8 2.1 26 9.6 SSE 11 22 6 12 1017.1 1016.9 0.0
20/02:30pm 22.6 18.1 2.1 26 9.7 SW 15 24 8 13 1017.4 - 0.0
20/02:00pm 22.2 18.0 1.8 26 9.6 SSW 13 20 7 11 1017.7 - 0.0
20/01:30pm 22.2 18.5 2.3 27 9.4 SW 11 22 6 12 1017.9 - 0.0
20/01:00pm 21.8 17.7 2.5 28 9.1 WSW 13 20 7 11 1018.2 - 0.0
20/12:30pm 21.5 17.6 1.2 26 9.3 SSW 11 26 6 14 1018.6 - 0.0
20/12:00pm 21.3 17.6 2.1 28 9.0 SSW 11 20 6 11 1019.2 1019.0 0.0
20/11:30am 21.1 17.9 2.9 30 8.6 S 9 17 5 9 1019.8 - 0.0
20/11:00am 20.4 17.2 3.2 32 8.2 S 9 13 5 7 1020.2 - 0.0
20/10:30am 19.8 16.7 3.5 34 7.7 ESE 9 13 5 7 1020.5 - 0.0
20/10:00am 18.9 15.9 4.3 38 7.0 E 9 15 5 8 1020.6 - 0.0
20/09:30am 18.0 14.7 4.6 41 6.4 E 11 15 6 8 1020.5 - 0.0
20/09:00am 16.2 13.1 3.6 43 5.8 E 9 11 5 6 1020.5 1020.2 0.0
20/08:30am 14.2 11.5 3.9 50 4.7 SE 7 11 4 6 1020.3 - 0.0
20/08:00am 12.0 8.9 3.5 56 3.8 SE 9 13 5 7 1019.9 - 0.0
20/07:30am 10.6 7.6 3.9 63 3.0 SSE 9 11 5 6 1019.5 - 0.0
20/07:00am 6.9 4.1 3.0 76 1.6 SSE 7 7 4 4 1019.1 - 0.0
20/06:30am 6.9 4.0 2.8 75 1.7 S 7 9 4 5 1018.8 - 0.0
20/06:00am 7.2 4.3 2.5 72 2.0 S 7 9 4 5 1018.5 1018.3 0.0
20/05:30am 8.0 5.2 2.9 70 2.2 S 7 7 4 4 1018.1 - 0.0
20/05:00am 7.7 4.8 2.4 69 2.2 S 7 7 4 4 1017.8 - 0.0
20/04:30am 8.3 5.4 2.5 67 2.4 S 7 7 4 4 1017.4 - 0.0
20/04:00am 9.5 6.3 2.8 63 2.9 S 9 9 5 5 1017.3 - 0.0
20/03:30am 9.9 6.7 3.0 62 3.0 SSE 9 11 5 6 1017.0 - 0.0
20/03:00am 11.0 7.4 3.1 58 3.5 SSE 11 13 6 7 1017.1 1016.9 0.0
20/02:30am 11.3 8.1 2.9 56 3.7 S 9 11 5 6 1017.3 - 0.0
20/02:00am 11.6 8.0 3.1 56 3.7 S 11 13 6 7 1017.5 - 0.0
20/01:30am 11.8 8.2 3.1 55 3.8 S 11 13 6 7 1017.7 - 0.0
20/01:00am 12.2 9.0 2.9 53 4.1 S 9 11 5 6 1017.8 - 0.0
20/12:30am 12.6 9.0 3.0 52 4.3 S 11 13 6 7 1017.7 - 0.0
20/12:00am 12.6 9.8 3.0 52 4.2 S 7 11 4 6 1017.8 1017.6 0.0
 
Date/Time
EST
Temp
°C
App
Temp
°C
Dew
Point
Rel
Hum
%
Delta-T
°C
Wind Press
QNH
hPa
Press
MSL
hPa
Rain
since 9 am
mm
Dir
 
Spd
km/h
Gust
km/h
Spd
kts
Gust
kts
19/11:30pm 13.8 10.6 3.0 48 4.8 S 9 11 5 6 1018.0 - 0.0
19/11:00pm 14.4 11.2 2.9 46 5.2 S 9 11 5 6 1018.0 - 0.0
19/10:30pm 14.6 11.5 3.4 47 5.1 S 9 11 5 6 1018.0 - 0.0
19/10:00pm 15.0 11.6 4.1 48 5.1 SSW 11 13 6 7 1018.1 - 0.0
19/09:30pm 15.7 12.8 4.7 48 5.2 SW 9 11 5 6 1018.1 - 0.0
19/09:00pm 16.2 13.4 5.2 48 5.3 SSW 9 11 5 6 1017.9 1017.7 0.0
19/08:30pm 16.4 13.6 5.1 47 5.4 SSW 9 9 5 5 1017.9 - 0.0
19/08:00pm 17.6 14.6 5.9 46 5.7 SSW 11 13 6 7 1017.5 - 0.0
19/07:30pm 17.9 15.0 6.7 48 5.6 SSW 11 15 6 8 1017.0 - 0.0
19/07:00pm 19.8 17.3 6.5 42 6.7 W 9 11 5 6 1016.7 - 0.0
19/06:30pm 20.1 17.8 5.7 39 7.2 WSW 7 9 4 5 1016.4 - 0.0
19/06:00pm 21.5 18.8 5.4 35 8.0 WSW 9 11 5 6 1016.0 1015.7 0.0
19/05:30pm 23.2 20.1 5.6 32 8.9 SW 11 19 6 10 1015.7 - 0.0
19/05:00pm 24.2 20.8 6.0 31 9.3 SW 13 19 7 10 1015.5 - 0.0
19/04:30pm 24.4 21.1 6.2 31 9.4 SW 13 20 7 11 1015.5 - 0.0
19/04:00pm 24.6 20.5 6.4 31 9.4 WSW 17 24 9 13 1015.5 - 0.0
19/03:30pm 25.0 20.6 7.2 32 9.4 SW 20 30 11 16 1015.5 - 0.0
19/03:00pm 24.8 21.3 7.0 32 9.3 WSW 15 28 8 15 1015.5 1015.2 0.0
19/02:30pm 24.9 21.5 7.5 33 9.2 WSW 15 22 8 12 1015.7 - 0.0
19/02:00pm 24.3 21.1 8.3 36 8.6 SW 15 30 8 16 1016.0 - 0.0
19/01:30pm 24.2 20.9 8.2 36 8.5 WSW 15 26 8 14 1016.3 - 0.0
19/01:00pm 24.2 21.3 8.2 36 8.5 SW 13 24 7 13 1016.8 - 0.0
19/12:30pm 24.6 22.6 10.1 40 8.0 SSW 11 19 6 10 1017.4 - 0.0
19/12:00pm 23.3 20.7 9.3 41 7.6 S 13 19 7 10 1018.0 1017.8 0.0
19/11:30am 22.7 20.0 10.2 45 6.9 S 15 33 8 18 1018.5 - 0.0
19/11:00am 22.7 20.0 10.5 46 6.7 SSE 15 20 8 11 1018.7 - 0.0
19/10:30am 22.0 19.0 10.8 49 6.2 SSE 17 26 9 14 1019.0 - 0.0
19/10:00am 21.1 17.5 10.6 51 5.8 SSE 20 28 11 15 1019.2 - 0.0
19/09:30am 20.1 16.1 10.5 54 5.2 SE 22 30 12 16 1019.3 - 0.0
19/09:00am 18.8 14.7 10.1 57 4.7 SSE 22 30 12 16 1019.4 1019.2 0.0
19/08:30am 17.7 14.5 10.1 61 4.1 SSE 17 32 9 17 1019.4 - 0.0
19/08:00am 16.6 13.4 10.0 65 3.5 S 17 20 9 11 1019.1 - 0.0
19/07:30am 13.9 12.3 8.7 71 2.6 SSW 7 9 4 5 1019.0 - 0.0
19/07:00am 12.7 10.6 8.4 75 2.1 SSW 9 13 5 7 1018.6 - 0.0
19/06:30am 12.6 10.4 7.9 73 2.3 SSW 9 13 5 7 1018.4 - 0.0
19/06:00am 12.6 10.0 7.7 72 2.4 SSW 11 11 6 6 1018.0 1017.8 0.0
19/05:30am 12.8 10.6 7.9 72 2.4 SSW 9 11 5 6 1017.9 - 0.0
19/05:00am 12.6 10.3 7.5 71 2.5 SSW 9 11 5 6 1017.6 - 0.0
19/04:30am 12.8 10.6 7.9 72 2.4 SW 9 11 5 6 1017.3 - 0.0
19/04:00am 12.7 10.1 7.8 72 2.4 SW 11 11 6 6 1017.1 - 0.0
19/03:30am 12.9 10.2 7.4 69 2.7 SW 11 13 6 7 1017.0 - 0.0
19/03:00am 13.7 11.4 7.5 66 3.1 WSW 9 11 5 6 1017.0 1016.8 0.0
19/02:30am 15.1 12.8 7.6 61 3.7 WSW 9 13 5 7 1017.0 - 0.0
19/02:00am 16.3 13.4 8.0 58 4.2 WSW 13 19 7 10 1017.2 - 0.0
19/01:30am 14.9 12.6 7.5 61 3.7 WSW 9 11 5 6 1017.2 - 0.0
19/01:00am 14.8 12.8 6.9 59 3.9 WSW 7 9 4 5 1017.3 - 0.0
19/12:30am 15.8 13.4 7.0 56 4.4 SW 9 11 5 6 1017.2 - 0.0
19/12:00am 16.7 14.3 7.1 53 4.8 WSW 9 13 5 7 1017.3 1017.1 0.0
 
Date/Time
EST
Temp
°C
App
Temp
°C
Dew
Point
Rel
Hum
%
Delta-T
°C
Wind Press
QNH
hPa
Press
MSL
hPa
Rain
since 9 am
mm
Dir
 
Spd
km/h
Gust
km/h
Spd
kts
Gust
kts
18/11:30pm 15.5 12.9 6.2 54 4.5 W 9 13 5 7 1017.3 - 0.0
18/11:00pm 15.6 13.0 6.1 53 4.6 WSW 9 15 5 8 1017.6 - 0.0
18/10:30pm 15.2 12.7 6.5 56 4.2 WNW 9 11 5 6 1017.4 - 0.0
18/10:00pm 13.8 11.8 7.1 64 3.3 NNW 7 9 4 5 1017.3 - 0.0

Other Formats:

Comma delimited format used in spreadsheet applications
http://www.bom.gov.au/fwo/IDN60801/IDN60801.94703.axf

JavaScript Object Notation format (JSON) in row-major order
http://www.bom.gov.au/fwo/IDN60801/IDN60801.94703.json